createdAt,value
2023-01-17T00:00:08.515Z,80.7
2023-01-17T00:01:08.353Z,80.7
2023-01-17T00:02:08.357Z,80.8
2023-01-17T00:03:08.370Z,80.7
2023-01-17T00:04:08.626Z,80.8
2023-01-17T00:05:08.412Z,80.7
2023-01-17T00:06:08.396Z,80.7
2023-01-17T00:07:08.412Z,80.5
2023-01-17T00:08:08.424Z,80.4
2023-01-17T00:09:08.460Z,80.4
2023-01-17T00:10:08.453Z,80.5
2023-01-17T00:11:08.465Z,80.3
2023-01-17T00:12:08.468Z,80.4
2023-01-17T00:13:08.491Z,80.6
2023-01-17T00:14:08.501Z,80.5
2023-01-17T00:15:08.536Z,80.4
2023-01-17T00:16:08.709Z,80.5
2023-01-17T00:17:08.527Z,80.5
2023-01-17T00:18:08.535Z,80.4
2023-01-17T00:19:08.641Z,80.7
2023-01-17T00:20:08.567Z,80.5
2023-01-17T00:21:08.600Z,80.5
2023-01-17T00:22:08.600Z,80.4
2023-01-17T00:23:08.615Z,80.5
2023-01-17T00:24:08.631Z,80.5
2023-01-17T00:25:08.654Z,80.5
2023-01-17T00:26:08.661Z,80.5
2023-01-17T00:27:08.676Z,80.3
2023-01-17T00:28:08.673Z,80.4
2023-01-17T00:29:08.688Z,80.7
2023-01-17T00:30:08.708Z,80.6
2023-01-17T00:31:08.878Z,80.6
2023-01-17T00:32:08.730Z,80.7
2023-01-17T00:33:08.744Z,80.8
2023-01-17T00:34:08.735Z,80.8
2023-01-17T00:35:08.767Z,80.8
2023-01-17T00:36:08.824Z,80.6
2023-01-17T00:37:08.796Z,80.8
2023-01-17T00:38:08.808Z,81.1
2023-01-17T00:39:08.837Z,80.8
2023-01-17T00:40:08.854Z,81.1
2023-01-17T00:41:08.867Z,81.1
2023-01-17T00:42:08.873Z,81.1
2023-01-17T00:43:08.884Z,81.2
2023-01-17T00:44:08.899Z,81.2
2023-01-17T00:45:08.921Z,81.1
2023-01-17T00:46:08.915Z,81.1
2023-01-17T00:47:08.952Z,81.1
2023-01-17T00:48:08.979Z,81.1
2023-01-17T00:49:08.978Z,81.1
2023-01-17T00:50:08.981Z,81.1
2023-01-17T00:51:08.980Z,81.2
2023-01-17T00:52:09.045Z,81.2
2023-01-17T00:53:09.016Z,81.2
2023-01-17T00:54:09.033Z,81.4
2023-01-17T00:55:09.071Z,81.4
2023-01-17T00:56:09.056Z,81.4
2023-01-17T00:57:09.079Z,81.5
2023-01-17T00:58:09.103Z,81.5
2023-01-17T00:59:09.137Z,81.5
2023-01-17T01:00:09.162Z,81.5
2023-01-17T01:01:09.521Z,81.3
2023-01-17T01:02:09.419Z,81.4
2023-01-17T01:03:09.186Z,81.2
2023-01-17T01:04:09.183Z,81.1
2023-01-17T01:05:09.204Z,81.4
2023-01-17T01:06:09.216Z,81.4
2023-01-17T01:07:09.256Z,81.4
2023-01-17T01:08:09.280Z,81.4
2023-01-17T01:09:09.280Z,81.3
2023-01-17T01:10:09.290Z,81.4
2023-01-17T01:11:09.301Z,81.3
2023-01-17T01:12:09.308Z,81.6
2023-01-17T01:13:09.337Z,81.7
2023-01-17T01:14:09.357Z,81.7
2023-01-17T01:15:09.365Z,81.7
2023-01-17T01:16:09.427Z,81.7
2023-01-17T01:17:09.410Z,81.6
2023-01-17T01:18:09.406Z,81.7
2023-01-17T01:19:09.419Z,81.8
2023-01-17T01:20:09.430Z,81.7
2023-01-17T01:21:09.441Z,81.7
2023-01-17T01:22:09.478Z,81.8
2023-01-17T01:23:09.457Z,81.8
2023-01-17T01:24:09.500Z,81.6
2023-01-17T01:25:09.494Z,81.5
2023-01-17T01:26:09.493Z,81.5
2023-01-17T01:27:09.495Z,81.7
2023-01-17T01:28:09.554Z,81.7
2023-01-17T01:29:09.520Z,81.8
2023-01-17T01:30:09.523Z,81.8
2023-01-17T01:31:09.788Z,81.8
2023-01-17T01:32:09.539Z,81.8
2023-01-17T01:33:09.558Z,81.8
2023-01-17T01:34:09.539Z,81.8
2023-01-17T01:52:10.000Z,82.3
2023-01-17T01:53:09.658Z,82.2
2023-01-17T01:54:09.680Z,82.2
2023-01-17T01:55:09.689Z,82.2
2023-01-17T01:56:09.697Z,82.3
2023-01-17T01:57:09.692Z,82.3
2023-01-17T01:58:09.741Z,82.3
2023-01-17T01:59:09.711Z,82.1
2023-01-17T02:00:09.711Z,82.2
2023-01-17T02:01:10.143Z,82.1
2023-01-17T02:02:09.711Z,82.2
2023-01-17T02:03:09.722Z,82.2
2023-01-17T02:04:10.461Z,82.3
2023-01-17T02:05:09.726Z,82.4
2023-01-17T02:06:09.757Z,82.3
2023-01-17T02:07:09.742Z,82.3
2023-01-17T02:08:09.770Z,82.3
2023-01-17T02:09:09.760Z,82.2
2023-01-17T02:10:09.806Z,82.3
2023-01-17T02:11:09.777Z,82.2
2023-01-17T02:12:09.783Z,82.3
2023-01-17T02:13:09.787Z,82.3
2023-01-17T02:14:09.800Z,82.3
2023-01-17T02:15:09.808Z,82.3
2023-01-17T02:16:10.009Z,82.2
2023-01-17T02:17:09.833Z,82.3
2023-01-17T02:18:09.820Z,82.3
2023-01-17T02:19:09.821Z,82.3
2023-01-17T02:20:09.831Z,82.4
2023-01-17T02:21:09.849Z,82.5
2023-01-17T02:22:09.849Z,82.4
2023-01-17T02:23:09.853Z,82.3
2023-01-17T02:24:09.901Z,82.5
2023-01-17T02:25:09.874Z,82.4
2023-01-17T02:26:09.866Z,82.6
2023-01-17T02:27:09.873Z,82.6
2023-01-17T02:28:09.886Z,82.6
2023-01-17T02:29:09.929Z,82.8
2023-01-17T02:30:09.912Z,82.7
2023-01-17T02:31:09.903Z,82.8
2023-01-17T02:32:09.909Z,82.8
2023-01-17T02:33:09.927Z,82.9
2023-01-17T02:34:09.936Z,82.9
2023-01-17T02:35:09.948Z,82.9
2023-01-17T02:36:09.952Z,82.8
2023-01-17T02:37:09.952Z,82.9
2023-01-17T02:38:09.959Z,83.0
2023-01-17T02:39:10.009Z,82.9
2023-01-17T02:40:09.967Z,82.9
2023-01-17T02:41:09.987Z,83.0
2023-01-17T02:42:09.980Z,82.9
2023-01-17T02:43:09.984Z,83.0
2023-01-17T02:44:10.010Z,83.1
2023-01-17T02:45:10.002Z,83.0
2023-01-17T02:46:10.352Z,83.1
2023-01-17T02:47:10.005Z,83.2
2023-01-17T02:48:10.030Z,83.1
2023-01-17T02:49:10.023Z,83.0
2023-01-17T02:50:10.047Z,82.9
2023-01-17T02:51:10.083Z,83.1
2023-01-17T02:52:10.047Z,83.0
2023-01-17T02:53:10.055Z,83.1
2023-01-17T02:54:10.051Z,83.2
2023-01-17T02:55:10.061Z,83.2
2023-01-17T02:56:10.098Z,83.2
2023-01-17T02:57:10.088Z,83.3
2023-01-17T02:58:10.096Z,83.3
2023-01-17T02:59:10.114Z,83.3
2023-01-17T03:00:10.095Z,83.5
2023-01-17T03:01:10.565Z,83.6
2023-01-17T03:02:10.706Z,83.6
2023-01-17T03:03:10.120Z,83.5
2023-01-17T03:04:10.169Z,83.6
2023-01-17T03:05:10.242Z,83.6
2023-01-17T03:06:10.159Z,83.5
2023-01-17T03:07:10.163Z,83.6
2023-01-17T03:08:10.168Z,83.6
2023-01-17T03:09:10.336Z,83.7
2023-01-17T03:10:10.435Z,83.5
2023-01-17T03:11:10.294Z,83.5
2023-01-17T03:12:10.192Z,83.5
2023-01-17T03:13:10.201Z,83.5
2023-01-17T03:14:10.208Z,83.7
2023-01-17T03:15:10.207Z,83.6
2023-01-17T03:16:12.984Z,83.7
2023-01-17T03:17:10.242Z,83.5
2023-01-17T03:18:10.230Z,83.6
2023-01-17T03:19:10.292Z,83.5
2023-01-17T03:20:10.249Z,83.4
2023-01-17T03:21:10.261Z,83.5
2023-01-17T03:22:10.255Z,83.5
2023-01-17T03:23:10.269Z,83.5
2023-01-17T03:24:10.298Z,83.5
2023-01-17T03:25:10.387Z,83.4
2023-01-17T03:26:10.300Z,83.4
2023-01-17T03:27:10.290Z,83.5
2023-01-17T03:28:10.307Z,83.5
2023-01-17T03:29:10.322Z,83.5
2023-01-17T03:30:10.341Z,83.6
2023-01-17T03:31:10.329Z,83.5
2023-01-17T03:32:10.319Z,83.6
2023-01-17T03:33:10.354Z,83.6
2023-01-17T03:34:10.334Z,83.7
2023-01-17T03:35:10.454Z,83.6
2023-01-17T03:36:10.347Z,83.6
2023-01-17T03:37:10.352Z,83.7
2023-01-17T03:38:10.359Z,83.5
2023-01-17T03:39:10.360Z,83.5
2023-01-17T03:40:10.362Z,83.5
2023-01-17T03:41:10.386Z,83.4
2023-01-17T03:42:10.387Z,83.4
2023-01-17T03:43:10.388Z,83.6
2023-01-17T03:44:10.403Z,83.6
2023-01-17T03:45:10.415Z,83.7
2023-01-17T03:46:10.557Z,83.6
2023-01-17T03:47:10.417Z,83.5
2023-01-17T03:48:10.430Z,83.4
2023-01-17T03:49:10.439Z,83.5
2023-01-17T03:50:10.445Z,83.5
2023-01-17T03:51:10.426Z,83.5
2023-01-17T03:52:10.438Z,83.5
2023-01-17T03:53:10.447Z,83.6
2023-01-17T03:54:10.454Z,83.6
2023-01-17T03:55:10.461Z,83.6
2023-01-17T03:56:10.465Z,83.7
2023-01-17T03:57:10.478Z,83.8
2023-01-17T03:58:10.496Z,83.8
2023-01-17T03:59:13.502Z,83.8
2023-01-17T04:00:10.503Z,83.8
2023-01-17T04:01:10.997Z,83.8
2023-01-17T04:02:10.895Z,83.8
2023-01-17T04:03:10.503Z,83.8
2023-01-17T04:04:10.523Z,83.8
2023-01-17T04:05:10.554Z,83.8
2023-01-17T04:06:10.529Z,83.8
2023-01-17T04:07:10.537Z,83.8
2023-01-17T04:08:10.525Z,83.8
2023-01-17T04:09:10.544Z,84.0
2023-01-17T04:10:10.565Z,84.0
2023-01-17T04:11:10.565Z,84.0
2023-01-17T04:12:10.554Z,84.0
2023-01-17T04:13:10.570Z,84.1
2023-01-17T04:14:10.603Z,84.1
2023-01-17T04:15:10.595Z,84.1
2023-01-17T04:16:10.592Z,84.2
2023-01-17T04:17:10.597Z,84.3
2023-01-17T04:18:10.624Z,84.2
2023-01-17T04:19:10.599Z,84.2
2023-01-17T04:20:10.616Z,84.2
2023-01-17T04:21:10.633Z,84.2
2023-01-17T04:22:10.616Z,84.2
2023-01-17T04:23:10.638Z,84.2
2023-01-17T04:24:10.643Z,84.2
2023-01-17T04:25:10.636Z,84.2
2023-01-17T04:26:10.649Z,84.2
2023-01-17T04:27:10.645Z,84.2
2023-01-17T04:28:10.672Z,84.2
2023-01-17T04:29:10.677Z,84.2
2023-01-17T04:30:10.724Z,84.3
2023-01-17T04:31:10.898Z,84.5
2023-01-17T04:32:10.696Z,84.7
2023-01-17T04:33:10.728Z,85.1
2023-01-17T04:34:10.706Z,85.1
2023-01-17T04:35:10.714Z,85.3
2023-01-17T04:36:10.773Z,85.4
2023-01-17T04:37:10.771Z,85.6
2023-01-17T04:38:10.756Z,85.7
2023-01-17T04:39:10.734Z,85.6
2023-01-17T04:40:10.781Z,85.9
2023-01-17T04:41:10.753Z,86.1
2023-01-17T04:42:10.759Z,85.9
2023-01-17T04:43:10.759Z,85.8
2023-01-17T04:44:10.796Z,85.5
2023-01-17T04:45:10.789Z,85.4
2023-01-17T04:46:11.170Z,84.5
2023-01-17T04:47:10.805Z,84.5
2023-01-17T04:48:10.800Z,84.1
2023-01-17T04:49:10.819Z,84.4
2023-01-17T04:50:10.858Z,84.5
2023-01-17T04:51:10.827Z,84.2
2023-01-17T04:52:10.822Z,84.5
2023-01-17T04:53:10.841Z,84.7
2023-01-17T04:54:10.914Z,84.7
2023-01-17T04:55:10.849Z,84.8
2023-01-17T04:56:10.850Z,84.8
2023-01-17T04:57:10.856Z,84.9
2023-01-17T04:58:10.863Z,85.1
2023-01-17T04:59:10.860Z,85.4
2023-01-17T05:00:10.896Z,85.5
2023-01-17T05:01:11.300Z,85.6
2023-01-17T05:02:11.108Z,85.6
2023-01-17T05:03:10.946Z,85.3
2023-01-17T05:04:10.890Z,85.2
2023-01-17T05:05:10.901Z,84.8
2023-01-17T05:06:10.943Z,84.9
2023-01-17T05:07:10.957Z,85.4
2023-01-17T05:08:10.950Z,86.0
2023-01-17T05:09:10.960Z,86.4
2023-01-17T05:10:10.963Z,86.2
2023-01-17T05:11:10.960Z,86.2
2023-01-17T05:12:10.986Z,86.4
2023-01-17T05:13:10.963Z,86.8
2023-01-17T05:14:11.028Z,87.1
2023-01-17T05:15:11.019Z,87.1
2023-01-17T05:16:11.165Z,87.0
2023-01-17T05:17:11.055Z,87.3
2023-01-17T05:18:11.002Z,87.3
2023-01-17T05:19:11.013Z,87.3
2023-01-17T05:20:11.013Z,87.4
2023-01-17T05:21:10.999Z,87.4
2023-01-17T05:22:11.018Z,87.3
2023-01-17T05:23:11.038Z,87.2
2023-01-17T05:24:11.027Z,86.8
2023-01-17T05:25:11.065Z,86.7
2023-01-17T05:26:11.071Z,86.7
2023-01-17T05:27:11.094Z,86.7
2023-01-17T05:28:11.049Z,86.7
2023-01-17T05:29:11.058Z,86.8
2023-01-17T05:30:11.083Z,86.8
2023-01-17T05:31:11.327Z,86.9
2023-01-17T05:32:11.086Z,87.0
2023-01-17T05:33:11.104Z,86.9
2023-01-17T05:34:11.105Z,86.7
2023-01-17T05:35:11.171Z,86.5
2023-01-17T05:36:11.115Z,86.7
2023-01-17T05:37:11.115Z,86.6
2023-01-17T05:38:11.137Z,86.8
2023-01-17T05:39:11.134Z,86.9
2023-01-17T05:40:11.130Z,87.2
2023-01-17T05:41:11.138Z,87.2
2023-01-17T05:42:11.155Z,87.0
2023-01-17T05:43:11.162Z,87.1
2023-01-17T05:44:11.169Z,87.1
2023-01-17T05:45:11.169Z,87.0
2023-01-17T05:46:11.392Z,87.0
2023-01-17T05:47:11.182Z,87.0
2023-01-17T05:48:11.189Z,87.1
2023-01-17T05:49:11.209Z,87.2
2023-01-17T05:50:11.191Z,87.5
2023-01-17T05:51:11.203Z,87.4
2023-01-17T05:52:11.213Z,87.5
2023-01-17T05:53:11.223Z,87.7
2023-01-17T05:54:11.240Z,87.7
2023-01-17T05:55:11.262Z,87.6
2023-01-17T05:56:11.237Z,87.4
2023-01-17T05:57:11.247Z,87.4
2023-01-17T05:58:11.237Z,87.5
2023-01-17T05:59:14.807Z,87.5
2023-01-17T06:00:11.265Z,87.7
2023-01-17T06:01:11.448Z,87.5
2023-01-17T06:02:11.275Z,87.9
2023-01-17T06:03:11.292Z,87.8
2023-01-17T06:04:11.311Z,87.6
2023-01-17T06:05:11.296Z,87.5
2023-01-17T06:06:11.302Z,87.4
2023-01-17T06:07:11.306Z,87.4
2023-01-17T06:08:11.353Z,87.6
2023-01-17T06:09:11.316Z,87.3
2023-01-17T06:10:11.319Z,87.1
2023-01-17T06:11:11.338Z,87.3
2023-01-17T06:12:11.334Z,87.3
2023-01-17T06:13:11.371Z,87.9
2023-01-17T06:14:11.361Z,88.4
2023-01-17T06:15:11.422Z,88.4
2023-01-17T06:16:11.680Z,88.1
2023-01-17T06:17:11.377Z,88.8
2023-01-17T06:18:11.399Z,88.8
2023-01-17T06:19:11.411Z,89.0
2023-01-17T06:20:11.428Z,89.6
2023-01-17T06:21:11.427Z,90.1
2023-01-17T06:22:11.419Z,90.8
2023-01-17T06:23:11.429Z,90.6
2023-01-17T06:24:11.431Z,91.0
2023-01-17T06:25:11.440Z,91.3
2023-01-17T06:26:11.447Z,91.7
2023-01-17T06:27:11.503Z,91.7
2023-01-17T06:28:11.460Z,92.0
2023-01-17T06:29:11.502Z,92.1
2023-01-17T06:30:11.477Z,92.1
2023-01-17T06:31:11.668Z,92.0
2023-01-17T06:32:11.490Z,91.8
2023-01-17T06:33:11.501Z,91.9
2023-01-17T06:34:11.544Z,92.1
2023-01-17T06:35:11.505Z,92.0
2023-01-17T06:36:11.566Z,92.1
2023-01-17T06:37:11.571Z,92.3
2023-01-17T06:38:11.578Z,92.5
2023-01-17T06:39:15.408Z,92.5
2023-01-17T06:40:11.565Z,92.1
2023-01-17T06:41:11.568Z,91.9
2023-01-17T06:42:12.049Z,92.2
2023-01-17T06:43:11.582Z,92.1
2023-01-17T06:44:11.581Z,92.1
2023-01-17T06:45:11.595Z,92.3
2023-01-17T06:46:11.719Z,92.4
2023-01-17T06:47:11.624Z,92.6
2023-01-17T06:48:11.629Z,92.8
2023-01-17T06:49:11.661Z,92.9
2023-01-17T06:50:11.636Z,93.1
2023-01-17T06:51:11.649Z,93.4
2023-01-17T06:52:11.645Z,93.3
2023-01-17T06:53:11.658Z,93.2
2023-01-17T06:54:11.664Z,93.1
2023-01-17T06:55:11.703Z,93.1
2023-01-17T06:56:11.703Z,93.3
2023-01-17T06:57:11.678Z,93.6
2023-01-17T06:58:11.734Z,93.8
2023-01-17T06:59:11.698Z,93.7
2023-01-17T07:00:11.716Z,93.8
2023-01-17T07:01:12.126Z,93.8
2023-01-17T07:02:11.728Z,93.8
2023-01-17T07:03:11.741Z,93.8
2023-01-17T07:04:11.929Z,93.7
2023-01-17T07:05:11.756Z,93.4
2023-01-17T07:06:11.757Z,93.4
2023-01-17T07:07:12.120Z,93.5
2023-01-17T07:08:11.757Z,93.5
2023-01-17T07:09:11.794Z,93.6
2023-01-17T07:10:11.788Z,93.3
2023-01-17T07:11:11.803Z,93.5
2023-01-17T07:12:11.794Z,93.4
2023-01-17T07:13:11.806Z,93.3
2023-01-17T07:14:11.835Z,93.4
2023-01-17T07:15:11.815Z,93.6
2023-01-17T07:16:11.957Z,93.5
2023-01-17T07:17:11.823Z,93.4
2023-01-17T07:18:11.869Z,93.3
2023-01-17T07:19:11.828Z,93.4
2023-01-17T07:20:11.882Z,93.5
2023-01-17T07:21:11.849Z,93.7
2023-01-17T07:22:11.860Z,93.4
2023-01-17T07:23:11.884Z,93.5
2023-01-17T07:24:11.886Z,93.5
2023-01-17T07:25:11.871Z,93.5
2023-01-17T07:26:11.913Z,93.6
2023-01-17T07:27:11.880Z,93.7
2023-01-17T07:28:11.883Z,93.7
2023-01-17T07:29:11.893Z,93.7
2023-01-17T07:30:11.935Z,93.6
2023-01-17T07:31:12.077Z,93.6
2023-01-17T07:32:11.911Z,93.7
2023-01-17T07:33:11.911Z,93.7
2023-01-17T07:34:11.920Z,93.7
2023-01-17T07:35:11.934Z,93.7
2023-01-17T07:36:11.946Z,93.8
2023-01-17T07:37:15.681Z,93.7
2023-01-17T07:38:11.962Z,93.8
2023-01-17T07:39:11.975Z,93.8
2023-01-17T07:40:11.980Z,93.9
2023-01-17T07:41:12.096Z,93.8
2023-01-17T07:42:11.998Z,93.8
2023-01-17T07:43:11.989Z,93.7
2023-01-17T07:44:12.007Z,93.8
2023-01-17T07:45:12.019Z,93.7
2023-01-17T07:46:12.155Z,93.5
2023-01-17T07:47:12.043Z,93.7
2023-01-17T07:48:12.044Z,93.7
2023-01-17T07:49:12.032Z,93.9
2023-01-17T07:50:12.074Z,93.8
2023-01-17T07:51:12.062Z,93.8
2023-01-17T07:52:12.070Z,93.5
2023-01-17T07:53:12.063Z,93.6
2023-01-17T07:54:12.090Z,93.7
2023-01-17T07:55:12.078Z,93.4
2023-01-17T07:56:12.079Z,93.5
2023-01-17T07:57:12.098Z,93.6
2023-01-17T07:58:12.112Z,93.4
2023-01-17T07:59:12.104Z,93.4
2023-01-17T08:00:12.113Z,93.4
2023-01-17T08:01:12.481Z,93.5
2023-01-17T08:02:12.119Z,93.4
2023-01-17T08:03:12.131Z,93.6
2023-01-17T08:04:12.416Z,93.5
2023-01-17T08:05:12.146Z,93.5
2023-01-17T08:06:12.151Z,93.3
2023-01-17T08:07:12.156Z,93.3
2023-01-17T08:08:12.163Z,92.9
2023-01-17T08:09:12.173Z,92.8
2023-01-17T08:10:12.193Z,92.5
2023-01-17T08:11:12.205Z,92.4
2023-01-17T08:12:12.222Z,92.2
2023-01-17T08:13:12.206Z,92.4
2023-01-17T08:14:12.221Z,92.4
2023-01-17T08:15:12.229Z,92.2
2023-01-17T08:16:12.427Z,92.1
2023-01-17T08:17:12.245Z,92.3
2023-01-17T08:18:12.242Z,92.1
2023-01-17T08:19:12.246Z,92.0
2023-01-17T08:20:12.255Z,92.2
2023-01-17T08:21:12.258Z,92.2
2023-01-17T08:22:12.289Z,92.3
2023-01-17T08:23:12.314Z,92.4
2023-01-17T08:24:12.283Z,91.8
2023-01-17T08:25:12.401Z,91.9
2023-01-17T08:26:12.333Z,91.8
2023-01-17T08:27:12.308Z,92.0
2023-01-17T08:28:12.309Z,91.8
2023-01-17T08:29:12.326Z,92.0
2023-01-17T08:30:12.334Z,92.1
2023-01-17T08:31:12.398Z,92.1
2023-01-17T08:32:12.359Z,92.1
2023-01-17T08:33:12.360Z,92.3
2023-01-17T08:34:12.351Z,92.4
2023-01-17T08:35:12.365Z,92.3
2023-01-17T08:36:12.379Z,92.4
2023-01-17T08:37:12.394Z,92.5
2023-01-17T08:38:12.388Z,92.7
2023-01-17T08:39:12.387Z,92.7
2023-01-17T08:40:12.391Z,93.2
2023-01-17T08:41:12.424Z,92.7
2023-01-17T08:42:12.414Z,92.7
2023-01-17T08:43:12.422Z,92.7
2023-01-17T08:44:12.418Z,92.7
2023-01-17T08:45:12.440Z,92.6
2023-01-17T08:46:12.581Z,92.5
2023-01-17T08:47:12.443Z,92.3
2023-01-17T08:48:12.454Z,92.3
2023-01-17T08:49:12.501Z,92.2
2023-01-17T08:50:12.470Z,92.3
2023-01-17T08:51:12.506Z,92.2
2023-01-17T08:52:12.501Z,92.6
2023-01-17T08:53:12.499Z,92.8
2023-01-17T08:54:12.495Z,92.8
2023-01-17T08:55:12.498Z,92.9
2023-01-17T08:56:12.537Z,93.3
2023-01-17T08:57:12.557Z,93.3
2023-01-17T08:58:12.543Z,93.2
2023-01-17T08:59:12.547Z,93.3
2023-01-17T09:00:12.560Z,93.3
2023-01-17T09:01:12.917Z,93.3
2023-01-17T09:02:12.554Z,93.4
2023-01-17T09:03:13.317Z,93.5
2023-01-17T09:04:12.687Z,93.6
2023-01-17T09:05:12.591Z,93.8
2023-01-17T09:06:12.625Z,93.9
2023-01-17T09:07:12.609Z,93.9
2023-01-17T09:08:12.615Z,93.9
2023-01-17T09:09:12.625Z,93.8
2023-01-17T09:10:12.643Z,93.5
2023-01-17T09:11:12.637Z,93.6
2023-01-17T09:12:12.630Z,93.4
2023-01-17T09:13:12.671Z,93.1
2023-01-17T09:14:12.639Z,92.9
2023-01-17T09:15:12.639Z,93.0
2023-01-17T09:16:12.796Z,93.0
2023-01-17T09:17:14.749Z,93.0
2023-01-17T09:18:12.669Z,93.1
2023-01-17T09:19:12.687Z,92.8
2023-01-17T09:20:12.731Z,92.9
2023-01-17T09:21:12.702Z,92.6
2023-01-17T09:22:12.700Z,92.6
2023-01-17T09:23:12.732Z,92.6
2023-01-17T09:24:12.710Z,92.7
2023-01-17T09:25:12.807Z,92.5
2023-01-17T09:26:12.734Z,92.4
2023-01-17T09:27:12.845Z,92.3
2023-01-17T09:28:12.803Z,91.9
2023-01-17T09:29:12.836Z,91.8
2023-01-17T09:30:12.850Z,91.5
2023-01-17T09:31:12.915Z,91.6
2023-01-17T09:32:12.870Z,91.6
2023-01-17T09:33:12.772Z,91.7
2023-01-17T09:34:12.792Z,91.8
2023-01-17T09:35:12.812Z,91.5
2023-01-17T09:36:12.834Z,91.3
2023-01-17T09:37:12.815Z,91.2
2023-01-17T09:38:12.814Z,91.6
2023-01-17T09:39:12.833Z,91.1
2023-01-17T09:40:12.827Z,91.1
2023-01-17T09:41:12.870Z,91.3
2023-01-17T09:42:12.852Z,91.6
2023-01-17T09:43:12.856Z,91.5
2023-01-17T09:44:12.868Z,91.6
2023-01-17T09:45:12.876Z,91.4
2023-01-17T09:46:13.112Z,91.3
2023-01-17T09:47:13.032Z,91.4
2023-01-17T09:48:12.897Z,91.2
2023-01-17T09:49:12.949Z,91.5
2023-01-17T09:50:12.922Z,91.7
2023-01-17T09:51:12.910Z,91.8
2023-01-17T09:52:12.909Z,91.8
2023-01-17T09:53:12.938Z,91.6
2023-01-17T09:54:12.935Z,91.6
2023-01-17T09:55:12.976Z,91.0
2023-01-17T09:56:12.972Z,90.9
2023-01-17T09:57:12.967Z,90.9
2023-01-17T09:58:13.017Z,90.9
2023-01-17T09:59:19.244Z,90.8
2023-01-17T10:00:13.072Z,90.4
2023-01-17T10:01:13.623Z,90.4
2023-01-17T10:02:13.786Z,89.9
2023-01-17T10:03:13.472Z,89.9
2023-01-17T10:04:13.585Z,89.0
2023-01-17T10:05:13.112Z,88.6
2023-01-17T10:06:13.039Z,89.3
2023-01-17T10:07:13.022Z,88.9
2023-01-17T10:08:13.046Z,89.4
2023-01-17T10:09:13.058Z,89.4
2023-01-17T10:10:13.046Z,89.0
2023-01-17T10:11:13.083Z,89.1
2023-01-17T10:12:13.089Z,88.8
2023-01-17T10:13:13.124Z,88.5
2023-01-17T10:14:13.082Z,87.5
2023-01-17T10:15:13.096Z,87.8
2023-01-17T10:16:13.088Z,88.0
2023-01-17T10:17:13.102Z,87.9
2023-01-17T10:18:30.746Z,87.6
2023-01-17T10:19:13.149Z,87.5
2023-01-17T10:20:13.157Z,87.9
2023-01-17T10:21:13.156Z,88.2
2023-01-17T10:22:13.147Z,88.3
2023-01-17T10:23:13.157Z,88.3
2023-01-17T10:24:13.177Z,88.6
2023-01-17T10:25:13.264Z,88.5
2023-01-17T10:26:13.191Z,88.6
2023-01-17T10:27:13.181Z,88.8
2023-01-17T10:28:13.210Z,88.9
2023-01-17T10:29:13.189Z,89.1
2023-01-17T10:30:13.227Z,89.0
2023-01-17T10:31:13.427Z,89.1
2023-01-17T10:32:13.216Z,89.2
2023-01-17T10:33:13.232Z,89.0
2023-01-17T10:34:13.250Z,89.0
2023-01-17T10:35:15.895Z,89.3
2023-01-17T10:36:13.249Z,89.2
2023-01-17T10:37:13.289Z,89.1
2023-01-17T10:38:13.272Z,88.5
2023-01-17T10:39:13.278Z,88.7
2023-01-17T10:40:13.278Z,88.6
2023-01-17T10:41:13.287Z,88.5
2023-01-17T10:42:13.324Z,87.9
2023-01-17T10:43:13.308Z,87.7
2023-01-17T10:44:13.318Z,88.0
2023-01-17T10:45:13.312Z,88.3
2023-01-17T10:46:13.512Z,88.1
2023-01-17T10:47:13.348Z,87.0
2023-01-17T10:48:13.345Z,86.7
2023-01-17T10:49:13.347Z,87.5
2023-01-17T10:50:13.415Z,87.5
2023-01-17T10:51:13.397Z,87.9
2023-01-17T10:52:13.392Z,87.5
2023-01-17T10:53:13.373Z,87.5
2023-01-17T10:54:13.411Z,87.9
2023-01-17T10:55:13.387Z,87.8
2023-01-17T10:56:13.421Z,87.3
2023-01-17T10:57:13.407Z,87.2
2023-01-17T10:58:13.396Z,87.6
2023-01-17T10:59:13.403Z,87.2
2023-01-17T11:00:13.418Z,86.2
2023-01-17T11:01:13.828Z,85.4
2023-01-17T11:02:13.729Z,85.4
2023-01-17T11:03:13.437Z,84.8
2023-01-17T11:04:13.459Z,84.7
2023-01-17T11:05:13.465Z,83.9
2023-01-17T11:06:13.457Z,84.7
2023-01-17T11:07:13.477Z,84.3
2023-01-17T11:08:13.496Z,83.8
2023-01-17T11:09:13.519Z,82.8
2023-01-17T11:10:13.484Z,83.0
2023-01-17T11:11:13.528Z,82.5
2023-01-17T11:12:13.506Z,82.9
2023-01-17T11:13:13.529Z,82.0
2023-01-17T11:14:13.541Z,81.0
2023-01-17T11:15:13.541Z,81.1
2023-01-17T11:16:13.548Z,81.7
2023-01-17T11:17:13.549Z,81.5
2023-01-17T11:18:13.556Z,81.1
2023-01-17T11:19:13.617Z,81.1
2023-01-17T11:20:13.570Z,80.7
2023-01-17T11:21:13.584Z,80.7
2023-01-17T11:22:13.574Z,80.8
2023-01-17T11:23:13.608Z,80.8
2023-01-17T11:24:13.610Z,81.0
2023-01-17T11:25:13.599Z,80.3
2023-01-17T11:26:13.632Z,78.6
2023-01-17T11:27:13.615Z,77.3
2023-01-17T11:28:13.630Z,78.1
2023-01-17T11:29:13.661Z,77.5
2023-01-17T11:30:13.659Z,78.5
2023-01-17T11:31:13.918Z,77.5
2023-01-17T11:32:13.659Z,77.0
2023-01-17T11:33:13.678Z,77.8
2023-01-17T11:34:13.687Z,76.2
2023-01-17T11:35:13.693Z,75.9
2023-01-17T11:36:13.694Z,75.6
2023-01-17T11:37:13.803Z,75.6
2023-01-17T11:38:13.734Z,76.2
2023-01-17T11:39:13.710Z,75.2
2023-01-17T11:40:13.729Z,76.3
2023-01-17T11:41:13.727Z,75.2
2023-01-17T11:42:13.734Z,74.9
2023-01-17T11:43:13.753Z,76.4
2023-01-17T11:44:13.824Z,76.1
2023-01-17T11:45:13.769Z,76.6
2023-01-17T11:46:13.867Z,77.5
2023-01-17T11:47:13.792Z,78.2
2023-01-17T11:48:13.832Z,77.3
2023-01-17T11:49:13.809Z,77.4
2023-01-17T11:50:13.833Z,79.2
2023-01-17T11:51:13.879Z,79.3
2023-01-17T11:52:13.813Z,80.3
2023-01-17T11:53:13.833Z,80.3
2023-01-17T11:54:13.838Z,80.5
2023-01-17T11:55:13.846Z,79.5
2023-01-17T11:56:13.853Z,80.0
2023-01-17T11:57:13.864Z,80.5
2023-01-17T11:58:13.869Z,80.1
2023-01-17T11:59:13.890Z,79.8
2023-01-17T12:00:13.887Z,79.3
2023-01-17T12:01:14.215Z,80.3
2023-01-17T12:02:13.984Z,81.0
2023-01-17T12:03:13.937Z,80.9
2023-01-17T12:04:13.992Z,80.3
2023-01-17T12:05:14.048Z,79.9
2023-01-17T12:06:13.944Z,79.0
2023-01-17T12:07:13.935Z,78.5
2023-01-17T12:08:13.968Z,76.4
2023-01-17T12:09:13.962Z,76.4
2023-01-17T12:10:13.984Z,76.7
2023-01-17T12:11:14.001Z,74.2
2023-01-17T12:12:13.998Z,73.1
2023-01-17T12:13:14.001Z,72.5
2023-01-17T12:14:14.020Z,71.7
2023-01-17T12:15:14.033Z,71.7
2023-01-17T12:16:14.184Z,71.1
2023-01-17T12:17:14.048Z,71.3
2023-01-17T12:18:14.155Z,71.6
2023-01-17T12:19:14.049Z,72.0
2023-01-17T12:20:14.241Z,70.7
2023-01-17T12:21:14.096Z,71.7
2023-01-17T12:22:14.089Z,71.4
2023-01-17T12:23:14.294Z,69.7
2023-01-17T12:24:14.128Z,70.7
2023-01-17T12:25:14.111Z,70.5
2023-01-17T12:26:14.100Z,71.1
2023-01-17T12:27:14.143Z,71.5
2023-01-17T12:28:14.119Z,71.1
2023-01-17T12:29:14.175Z,71.7
2023-01-17T12:30:14.426Z,71.8
2023-01-17T12:31:14.243Z,71.3
2023-01-17T12:32:14.152Z,71.4
2023-01-17T12:33:14.205Z,73.0
2023-01-17T12:34:14.179Z,73.4
2023-01-17T12:35:14.183Z,73.4
2023-01-17T12:36:14.199Z,73.5
2023-01-17T12:37:14.488Z,72.6
2023-01-17T12:38:33.357Z,72.0
2023-01-17T12:39:14.515Z,72.7
2023-01-17T12:40:14.506Z,72.5
2023-01-17T12:41:14.231Z,73.0
2023-01-17T12:42:14.272Z,73.4
2023-01-17T12:43:14.257Z,73.1
2023-01-17T12:44:14.278Z,72.9
2023-01-17T12:45:14.277Z,72.8
2023-01-17T12:46:14.332Z,73.1
2023-01-17T12:47:14.281Z,73.5
2023-01-17T12:48:14.277Z,73.3
2023-01-17T12:49:14.286Z,73.5
2023-01-17T12:50:14.373Z,72.4
2023-01-17T12:51:14.337Z,73.3
2023-01-17T12:52:14.337Z,72.8
2023-01-17T12:53:14.337Z,72.3
2023-01-17T12:54:14.356Z,72.7
2023-01-17T12:55:14.357Z,72.7
2023-01-17T12:56:14.359Z,72.3
2023-01-17T12:57:14.374Z,72.2
2023-01-17T12:58:14.386Z,71.6
2023-01-17T12:59:14.386Z,72.1
2023-01-17T13:00:14.448Z,73.0
2023-01-17T13:01:14.814Z,71.8
2023-01-17T13:02:14.633Z,70.9
2023-01-17T13:03:14.427Z,71.0
2023-01-17T13:04:14.440Z,70.6
2023-01-17T13:05:14.435Z,70.0
2023-01-17T13:06:14.442Z,70.1
2023-01-17T13:07:14.439Z,70.7
2023-01-17T13:08:14.452Z,70.3
2023-01-17T13:09:14.461Z,70.4
2023-01-17T13:10:14.480Z,70.0
2023-01-17T13:11:14.513Z,68.7
2023-01-17T13:12:14.517Z,69.7
2023-01-17T13:13:14.492Z,70.0
2023-01-17T13:14:14.552Z,69.6
2023-01-17T13:15:14.515Z,68.7
2023-01-17T13:16:14.724Z,68.5
2023-01-17T13:17:14.530Z,67.7
2023-01-17T13:18:14.650Z,68.6
2023-01-17T13:19:14.556Z,67.4
2023-01-17T13:20:14.585Z,67.8
2023-01-17T13:21:14.580Z,66.4
2023-01-17T13:22:14.565Z,67.3
2023-01-17T13:23:14.586Z,67.0
2023-01-17T13:24:14.662Z,67.5
2023-01-17T13:25:14.621Z,67.6
2023-01-17T13:26:14.615Z,66.8
2023-01-17T13:27:14.619Z,66.1
2023-01-17T13:28:14.618Z,66.8
2023-01-17T13:29:14.626Z,66.2
2023-01-17T13:30:14.620Z,66.3
2023-01-17T13:31:14.746Z,67.2
2023-01-17T13:32:14.715Z,67.9
2023-01-17T13:33:14.675Z,67.3
2023-01-17T13:34:14.672Z,67.1
2023-01-17T13:35:14.675Z,67.6